createdAt,value
2023-07-06T00:00:46.366Z,43.60
2023-07-06T00:01:46.494Z,43.64
2023-07-06T00:02:46.515Z,43.61
2023-07-06T00:03:46.681Z,43.59
2023-07-06T00:04:46.644Z,43.59
2023-07-06T00:05:46.643Z,43.55
2023-07-06T00:06:46.708Z,43.57
2023-07-06T00:07:46.768Z,43.55
2023-07-06T00:08:46.837Z,43.54
2023-07-06T00:09:46.863Z,43.56
2023-07-06T00:10:46.946Z,43.50
2023-07-06T00:11:46.985Z,43.49
2023-07-06T00:12:47.065Z,43.49
2023-07-06T00:13:47.100Z,43.49
2023-07-06T00:14:47.162Z,43.48
2023-07-06T00:15:47.195Z,43.49
2023-07-06T00:16:47.340Z,43.47
2023-07-06T00:17:47.444Z,43.47
2023-07-06T00:18:47.355Z,43.45
2023-07-06T00:19:47.453Z,43.43
2023-07-06T00:20:47.544Z,43.43
2023-07-06T00:21:47.506Z,43.41
2023-07-06T00:22:47.590Z,43.40
2023-07-06T00:23:47.679Z,43.38
2023-07-06T00:24:47.758Z,43.38
2023-07-06T00:25:47.776Z,43.35
2023-07-06T00:26:47.895Z,43.36
2023-07-06T00:27:47.882Z,43.36
2023-07-06T00:28:47.926Z,43.32
2023-07-06T00:29:47.962Z,43.32
2023-07-06T00:30:48.052Z,43.30
2023-07-06T00:31:48.106Z,43.32
2023-07-06T00:32:48.231Z,43.31
2023-07-06T00:33:48.227Z,43.29
2023-07-06T00:34:48.273Z,43.29
2023-07-06T00:35:48.299Z,43.31
2023-07-06T00:36:48.434Z,43.28
2023-07-06T00:37:48.420Z,43.28
2023-07-06T00:38:48.500Z,43.28
2023-07-06T00:39:48.542Z,43.23
2023-07-06T00:40:48.621Z,43.26
2023-07-06T00:41:49.835Z,43.22
2023-07-06T00:42:48.714Z,43.22
2023-07-06T00:43:48.760Z,43.24
2023-07-06T00:44:48.870Z,43.20
2023-07-06T00:45:49.680Z,43.20
2023-07-06T00:46:48.948Z,43.21
2023-07-06T00:47:49.115Z,43.18
2023-07-06T00:48:49.058Z,43.19
2023-07-06T00:49:49.132Z,43.18
2023-07-06T00:50:49.159Z,43.20
2023-07-06T00:51:49.259Z,43.15
2023-07-06T00:52:49.344Z,43.16
2023-07-06T00:53:49.655Z,43.16
2023-07-06T00:54:49.407Z,43.14
2023-07-06T00:55:49.435Z,43.14
2023-07-06T00:56:49.465Z,43.12
2023-07-06T00:57:49.546Z,43.13
2023-07-06T00:58:49.644Z,43.13
2023-07-06T00:59:49.632Z,43.10
2023-07-06T01:00:49.942Z,43.09
2023-07-06T01:01:49.748Z,43.06
2023-07-06T01:02:49.968Z,43.09
2023-07-06T01:03:49.944Z,43.05
2023-07-06T01:04:49.990Z,43.06
2023-07-06T01:05:50.004Z,43.05
2023-07-06T01:06:50.026Z,43.04
2023-07-06T01:07:50.104Z,43.03
2023-07-06T01:08:50.158Z,43.01
2023-07-06T01:09:50.263Z,43.02
2023-07-06T01:10:50.264Z,43.00
2023-07-06T01:11:50.341Z,42.99
2023-07-06T01:12:50.374Z,42.98
2023-07-06T01:13:50.477Z,42.98
2023-07-06T01:14:50.490Z,42.98
2023-07-06T01:15:50.615Z,42.97
2023-07-06T01:16:50.682Z,42.90
2023-07-06T01:17:50.712Z,42.90
2023-07-06T01:18:50.734Z,42.91
2023-07-06T01:19:50.783Z,42.91
2023-07-06T01:20:50.818Z,42.91
2023-07-06T01:21:50.854Z,42.94
2023-07-06T01:22:50.912Z,42.93
2023-07-06T01:23:50.976Z,42.92
2023-07-06T01:24:51.015Z,42.91
2023-07-06T01:25:51.089Z,42.89
2023-07-06T01:26:51.119Z,42.88
2023-07-06T01:27:51.198Z,42.88
2023-07-06T01:28:51.237Z,42.86
2023-07-06T01:29:51.293Z,42.81
2023-07-06T01:30:51.352Z,42.83
2023-07-06T01:31:51.401Z,42.77
2023-07-06T01:32:51.576Z,42.77
2023-07-06T01:33:51.709Z,42.79
2023-07-06T01:34:51.553Z,42.77
2023-07-06T01:35:51.589Z,42.75
2023-07-06T01:36:51.672Z,42.75
2023-07-06T01:37:51.697Z,42.75
2023-07-06T01:38:51.750Z,42.72
2023-07-06T01:39:51.810Z,42.69
2023-07-06T01:40:51.871Z,42.70
2023-07-06T01:41:51.976Z,42.66
2023-07-06T01:42:51.995Z,42.66
2023-07-06T01:43:52.022Z,42.64
2023-07-06T01:44:52.109Z,42.64
2023-07-06T01:45:52.167Z,42.67
2023-07-06T01:46:52.277Z,42.65
2023-07-06T01:47:52.352Z,42.65
2023-07-06T01:48:52.322Z,42.64
2023-07-06T01:49:52.397Z,42.62
2023-07-06T01:50:52.387Z,42.62
2023-07-06T01:51:52.453Z,42.60
2023-07-06T01:52:52.525Z,42.60
2023-07-06T01:53:52.593Z,42.60
2023-07-06T01:54:52.633Z,42.60
2023-07-06T01:55:52.850Z,42.57
2023-07-06T01:56:52.734Z,42.57
2023-07-06T01:58:01.430Z,42.60
2023-07-06T01:58:54.192Z,42.57
2023-07-06T01:59:52.829Z,42.55
2023-07-06T02:00:52.862Z,42.59
2023-07-06T02:01:52.861Z,42.52
2023-07-06T02:02:52.829Z,42.50
2023-07-06T02:03:52.758Z,42.52
2023-07-06T02:04:52.755Z,42.52
2023-07-06T02:05:52.744Z,42.53
2023-07-06T02:06:52.765Z,42.49
2023-07-06T02:07:52.793Z,42.50
2023-07-06T02:08:52.819Z,42.51
2023-07-06T02:09:52.848Z,42.47
2023-07-06T02:10:52.934Z,42.46
2023-07-06T02:11:53.020Z,42.45
2023-07-06T02:12:53.054Z,42.45
2023-07-06T02:13:53.219Z,42.41
2023-07-06T02:14:53.168Z,42.41
2023-07-06T02:15:53.203Z,42.45
2023-07-06T02:16:53.308Z,42.43
2023-07-06T02:17:53.384Z,42.37
2023-07-06T02:18:53.359Z,42.40
2023-07-06T02:19:53.433Z,42.40
2023-07-06T02:20:53.481Z,42.39
2023-07-06T02:21:53.563Z,42.38
2023-07-06T02:22:53.607Z,42.38
2023-07-06T02:23:53.648Z,42.35
2023-07-06T02:24:53.718Z,42.39
2023-07-06T02:25:54.044Z,42.36
2023-07-06T02:26:53.780Z,42.32
2023-07-06T02:27:53.879Z,42.32
2023-07-06T02:28:53.964Z,42.34
2023-07-06T02:29:53.997Z,42.32
2023-07-06T02:30:54.246Z,42.32
2023-07-06T02:31:54.103Z,42.33
2023-07-06T02:32:54.246Z,42.29
2023-07-06T02:33:54.269Z,42.32
2023-07-06T02:34:54.244Z,42.29
2023-07-06T02:35:54.699Z,42.29
2023-07-06T02:36:54.354Z,42.28
2023-07-06T02:37:54.426Z,42.26
2023-07-06T02:38:54.723Z,42.28
2023-07-06T02:39:54.579Z,42.25
2023-07-06T02:40:54.573Z,42.25
2023-07-06T02:41:54.630Z,42.28
2023-07-06T02:42:54.666Z,42.27
2023-07-06T02:43:54.715Z,42.27
2023-07-06T02:44:54.802Z,42.25
2023-07-06T02:45:55.066Z,42.23
2023-07-06T02:46:54.913Z,42.24
2023-07-06T02:47:54.965Z,42.23
2023-07-06T02:48:54.998Z,42.22
2023-07-06T02:49:55.052Z,42.21
2023-07-06T02:50:55.134Z,42.16
2023-07-06T02:51:55.175Z,42.16
2023-07-06T02:52:55.181Z,42.15
2023-07-06T02:53:55.287Z,42.10
2023-07-06T02:54:55.368Z,42.12
2023-07-06T02:55:55.749Z,42.12
2023-07-06T02:56:55.465Z,42.09
2023-07-06T02:57:55.525Z,42.12
2023-07-06T02:58:55.591Z,42.07
2023-07-06T02:59:55.601Z,42.09
2023-07-06T03:00:55.642Z,42.09
2023-07-06T03:01:55.750Z,42.03
2023-07-06T03:02:55.864Z,42.06
2023-07-06T03:03:55.829Z,42.03
2023-07-06T03:04:55.921Z,42.04
2023-07-06T03:05:56.438Z,42.01
2023-07-06T03:06:56.039Z,42.00
2023-07-06T03:07:56.209Z,41.99
2023-07-06T03:08:56.113Z,42.00
2023-07-06T03:09:56.188Z,42.01
2023-07-06T03:10:56.216Z,41.99
2023-07-06T03:11:56.302Z,41.99
2023-07-06T03:12:56.353Z,41.93
2023-07-06T03:13:56.551Z,41.94
2023-07-06T03:14:56.434Z,42.00
2023-07-06T03:15:56.718Z,41.98
2023-07-06T03:16:56.564Z,41.95
2023-07-06T03:17:56.634Z,41.93
2023-07-06T03:18:56.652Z,41.97
2023-07-06T03:19:56.705Z,41.94
2023-07-06T03:20:56.771Z,41.91
2023-07-06T03:21:56.822Z,41.91
2023-07-06T03:22:56.889Z,41.85
2023-07-06T03:23:56.942Z,41.89
2023-07-06T03:24:56.973Z,41.87
2023-07-06T03:25:57.438Z,41.83
2023-07-06T03:26:57.108Z,41.84
2023-07-06T03:27:57.131Z,41.84
2023-07-06T03:28:57.239Z,41.89
2023-07-06T03:29:57.282Z,41.82
2023-07-06T03:30:57.364Z,41.82
2023-07-06T03:31:57.461Z,41.85
2023-07-06T03:32:57.537Z,41.85
2023-07-06T03:33:57.527Z,41.83
2023-07-06T03:34:57.580Z,41.82
2023-07-06T03:35:57.756Z,41.84
2023-07-06T03:36:57.670Z,41.85
2023-07-06T03:37:57.757Z,41.84
2023-07-06T03:38:57.821Z,41.80
2023-07-06T03:39:57.830Z,41.84
2023-07-06T03:40:57.915Z,41.79
2023-07-06T03:41:57.939Z,41.80
2023-07-06T03:42:58.062Z,41.80
2023-07-06T03:43:58.100Z,41.77
2023-07-06T03:44:58.192Z,41.80
2023-07-06T03:45:58.469Z,41.78
2023-07-06T03:46:58.290Z,41.79
2023-07-06T03:47:58.363Z,41.75
2023-07-06T03:48:58.401Z,41.75
2023-07-06T03:49:58.408Z,41.76
2023-07-06T03:50:58.438Z,41.74
2023-07-06T03:51:58.532Z,41.72
2023-07-06T03:52:58.640Z,41.74
2023-07-06T03:53:58.644Z,41.69
2023-07-06T03:54:58.832Z,41.70
2023-07-06T03:55:58.896Z,41.73
2023-07-06T03:56:58.878Z,41.72
2023-07-06T03:58:05.196Z,41.69
2023-07-06T03:58:59.917Z,41.72
2023-07-06T03:59:58.891Z,41.68
2023-07-06T04:00:58.907Z,41.68
2023-07-06T04:01:58.938Z,41.69
2023-07-06T04:02:58.928Z,41.70
2023-07-06T04:03:58.943Z,41.69
2023-07-06T04:04:58.827Z,41.68
2023-07-06T04:05:59.127Z,41.66
2023-07-06T04:06:58.913Z,41.67
2023-07-06T04:07:58.944Z,41.66
2023-07-06T04:08:59.237Z,41.63
2023-07-06T04:09:59.072Z,41.70
2023-07-06T04:10:59.186Z,41.66
2023-07-06T04:11:59.177Z,41.62
2023-07-06T04:12:59.315Z,41.66
2023-07-06T04:13:59.470Z,41.67
2023-07-06T04:14:59.338Z,41.66
2023-07-06T04:15:59.790Z,41.63
2023-07-06T04:16:59.540Z,41.62
2023-07-06T04:17:59.671Z,41.64
2023-07-06T04:18:59.640Z,41.61
2023-07-06T04:19:59.711Z,41.65
2023-07-06T04:20:59.760Z,41.65
2023-07-06T04:21:59.831Z,41.64
2023-07-06T04:22:59.878Z,41.66
2023-07-06T04:24:00.253Z,41.63
2023-07-06T04:24:59.987Z,41.64
2023-07-06T04:26:00.063Z,41.63
2023-07-06T04:27:00.143Z,41.62
2023-07-06T04:28:00.222Z,41.62
2023-07-06T04:29:00.364Z,41.61
2023-07-06T04:30:00.292Z,41.64
2023-07-06T04:31:00.391Z,41.59
2023-07-06T04:32:00.400Z,41.60
2023-07-06T04:33:00.488Z,41.62
2023-07-06T04:34:00.498Z,41.60
2023-07-06T04:35:00.568Z,41.61
2023-07-06T04:36:00.793Z,41.58
2023-07-06T04:37:00.700Z,41.57
2023-07-06T04:38:00.752Z,41.61
2023-07-06T04:39:00.818Z,41.60
2023-07-06T04:40:00.851Z,41.57
2023-07-06T04:41:00.947Z,41.57
2023-07-06T04:42:00.939Z,41.58
2023-07-06T04:43:00.958Z,41.59
2023-07-06T04:44:01.259Z,41.58
2023-07-06T04:45:00.980Z,41.57
2023-07-06T04:46:00.988Z,41.57
2023-07-06T04:47:01.118Z,41.60
2023-07-06T04:48:01.013Z,41.60
2023-07-06T04:49:01.040Z,41.60
2023-07-06T04:50:01.060Z,41.59
2023-07-06T04:51:01.065Z,41.59
2023-07-06T04:52:01.126Z,41.61
2023-07-06T04:53:01.138Z,41.62
2023-07-06T04:54:01.222Z,41.63
2023-07-06T04:55:01.227Z,41.66
2023-07-06T04:56:01.495Z,41.61
2023-07-06T04:57:01.342Z,41.56
2023-07-06T04:58:01.381Z,41.53
2023-07-06T04:59:01.748Z,41.52
2023-07-06T05:00:01.527Z,41.49
2023-07-06T05:01:01.570Z,41.51
2023-07-06T05:02:01.590Z,41.48
2023-07-06T05:03:01.764Z,41.44
2023-07-06T05:04:01.889Z,41.42
2023-07-06T05:05:01.704Z,41.44
2023-07-06T05:06:01.762Z,41.42
2023-07-06T05:07:01.786Z,41.40
2023-07-06T05:08:01.845Z,41.42
2023-07-06T05:09:01.845Z,41.39
2023-07-06T05:10:01.885Z,41.39
2023-07-06T05:11:01.898Z,41.42
2023-07-06T05:12:01.913Z,41.38
2023-07-06T05:13:01.923Z,41.40
2023-07-06T05:14:01.913Z,41.41
2023-07-06T05:15:01.887Z,41.38
2023-07-06T05:16:01.885Z,41.40
2023-07-06T05:17:01.930Z,41.41
2023-07-06T05:18:01.937Z,41.42
2023-07-06T05:19:01.918Z,41.44
2023-07-06T05:20:01.933Z,41.42
2023-07-06T05:21:01.920Z,41.44
2023-07-06T05:22:01.908Z,41.43
2023-07-06T05:23:01.945Z,41.45
2023-07-06T05:24:02.374Z,41.46
2023-07-06T05:25:01.948Z,41.45
2023-07-06T05:26:01.960Z,41.47
2023-07-06T05:27:01.966Z,41.46
2023-07-06T05:28:01.979Z,41.47
2023-07-06T05:29:02.026Z,41.50
2023-07-06T05:30:02.037Z,41.49
2023-07-06T05:31:02.011Z,41.51
2023-07-06T05:32:02.000Z,41.49
2023-07-06T05:33:02.053Z,41.52
2023-07-06T05:34:02.018Z,41.50
2023-07-06T05:35:02.027Z,41.53
2023-07-06T05:36:02.719Z,41.51
2023-07-06T05:37:02.013Z,41.54
2023-07-06T05:38:02.001Z,41.54
2023-07-06T05:39:01.982Z,41.52
2023-07-06T05:40:01.992Z,41.53
2023-07-06T05:41:02.025Z,41.57
2023-07-06T05:42:01.999Z,41.56
2023-07-06T05:43:02.010Z,41.58
2023-07-06T05:44:02.334Z,41.57
2023-07-06T05:45:01.979Z,41.58
2023-07-06T05:46:02.038Z,41.58
2023-07-06T05:47:01.999Z,41.63
2023-07-06T05:48:02.079Z,41.61
2023-07-06T05:49:01.950Z,41.61
2023-07-06T05:50:01.944Z,41.62
2023-07-06T05:51:01.969Z,41.63
2023-07-06T05:52:01.954Z,41.65
2023-07-06T05:53:01.939Z,41.65
2023-07-06T05:54:04.334Z,41.64
2023-07-06T05:55:01.957Z,41.65
2023-07-06T05:56:01.925Z,41.67
2023-07-06T05:57:01.971Z,41.66
2023-07-06T05:58:01.939Z,41.67
2023-07-06T05:59:01.936Z,41.70
2023-07-06T06:00:01.925Z,41.69
2023-07-06T06:01:01.940Z,41.69
2023-07-06T06:02:01.917Z,41.67
2023-07-06T06:03:01.949Z,41.70
2023-07-06T06:04:01.939Z,41.69
2023-07-06T06:05:01.856Z,41.72
2023-07-06T06:06:01.875Z,41.69
2023-07-06T06:07:01.869Z,41.73
2023-07-06T06:08:01.858Z,41.72
2023-07-06T06:09:01.849Z,41.73
2023-07-06T06:10:01.836Z,41.73
2023-07-06T06:11:01.825Z,41.73
2023-07-06T06:12:01.884Z,41.75
2023-07-06T06:13:01.821Z,41.75
2023-07-06T06:14:02.355Z,41.76
2023-07-06T06:15:01.861Z,41.77
2023-07-06T06:16:01.810Z,41.79
2023-07-06T06:17:01.866Z,41.80
2023-07-06T06:18:01.800Z,41.81
2023-07-06T06:19:02.338Z,41.79
2023-07-06T06:20:01.759Z,41.83
2023-07-06T06:21:01.791Z,41.80
2023-07-06T06:22:01.774Z,41.82
2023-07-06T06:23:01.800Z,41.81
2023-07-06T06:24:01.789Z,41.81
2023-07-06T06:25:01.792Z,41.82
2023-07-06T06:26:01.776Z,41.83
2023-07-06T06:27:01.750Z,41.85
2023-07-06T06:28:01.717Z,41.83
2023-07-06T06:29:01.732Z,41.82
2023-07-06T06:30:01.717Z,41.83
2023-07-06T06:31:01.710Z,41.84
2023-07-06T06:32:01.778Z,41.84
2023-07-06T06:33:01.744Z,41.83
2023-07-06T06:34:01.680Z,41.86
2023-07-06T06:35:01.682Z,41.85
2023-07-06T06:36:01.662Z,41.84
2023-07-06T06:37:01.688Z,41.89
2023-07-06T06:38:01.694Z,41.85
2023-07-06T06:39:01.732Z,41.86
2023-07-06T06:40:01.715Z,41.88
2023-07-06T06:41:01.665Z,41.88
2023-07-06T06:42:01.674Z,41.88
2023-07-06T06:43:01.648Z,41.87
2023-07-06T06:44:01.614Z,41.90
2023-07-06T06:45:01.626Z,41.87
2023-07-06T06:46:01.671Z,41.88
2023-07-06T06:47:04.344Z,41.89
2023-07-06T06:48:01.682Z,41.89
2023-07-06T06:49:01.641Z,41.84
2023-07-06T06:50:01.622Z,41.89
2023-07-06T06:51:01.597Z,41.87
2023-07-06T06:52:01.595Z,41.91
2023-07-06T06:53:01.571Z,41.88
2023-07-06T06:54:01.590Z,41.88
2023-07-06T06:55:01.591Z,41.91
2023-07-06T06:56:01.578Z,41.93
2023-07-06T06:57:01.571Z,41.93
2023-07-06T06:58:01.557Z,41.91
2023-07-06T06:59:01.556Z,41.91
2023-07-06T07:00:01.526Z,41.91
2023-07-06T07:01:01.538Z,41.92
2023-07-06T07:02:01.760Z,41.90
2023-07-06T07:03:01.578Z,41.92
2023-07-06T07:04:01.600Z,41.88
2023-07-06T07:05:01.543Z,41.88
2023-07-06T07:06:01.501Z,41.89
2023-07-06T07:07:01.502Z,41.89
2023-07-06T07:08:01.484Z,41.88
2023-07-06T07:09:01.504Z,41.92
2023-07-06T07:10:01.511Z,41.87
2023-07-06T07:11:17.859Z,41.88
2023-07-06T07:12:02.472Z,41.90
2023-07-06T07:13:01.444Z,41.88
2023-07-06T07:14:01.601Z,41.88
2023-07-06T07:15:01.426Z,41.88
2023-07-06T07:16:01.458Z,41.90
2023-07-06T07:17:01.404Z,41.90
2023-07-06T07:18:01.419Z,41.91
2023-07-06T07:19:01.440Z,41.91
2023-07-06T07:20:01.829Z,41.89
2023-07-06T07:21:02.645Z,41.94
2023-07-06T07:22:01.416Z,41.92
2023-07-06T07:23:01.367Z,41.90
2023-07-06T07:24:01.388Z,41.91
2023-07-06T07:25:01.431Z,41.93
2023-07-06T07:26:01.395Z,41.92
2023-07-06T07:27:01.384Z,41.93
2023-07-06T07:28:01.425Z,41.92
2023-07-06T07:29:01.419Z,41.92
2023-07-06T07:30:01.817Z,41.94
2023-07-06T07:31:01.468Z,41.93
2023-07-06T07:32:01.493Z,41.96
2023-07-06T07:33:01.515Z,41.97
2023-07-06T07:34:01.523Z,41.95
2023-07-06T07:35:01.555Z,41.95
2023-07-06T07:36:01.540Z,41.95
2023-07-06T07:37:01.597Z,41.95
2023-07-06T07:38:01.664Z,41.96
2023-07-06T07:39:01.715Z,41.99
2023-07-06T07:40:01.812Z,41.98
2023-07-06T07:41:01.773Z,41.96
2023-07-06T07:42:01.822Z,41.99
2023-07-06T07:43:01.850Z,41.96
2023-07-06T07:44:01.878Z,41.99
2023-07-06T07:45:01.948Z,41.98
2023-07-06T07:46:02.021Z,41.96
2023-07-06T07:47:02.069Z,41.99
2023-07-06T07:48:02.105Z,41.98
2023-07-06T07:49:02.152Z,41.97
2023-07-06T07:50:02.195Z,41.96
2023-07-06T07:51:02.204Z,41.97
2023-07-06T07:52:02.229Z,41.95
2023-07-06T07:53:02.311Z,41.98
2023-07-06T07:54:02.822Z,41.96
2023-07-06T07:55:02.834Z,41.96
2023-07-06T07:56:02.347Z,41.96
2023-07-06T07:57:02.419Z,41.95
2023-07-06T07:58:02.438Z,41.92
2023-07-06T07:59:02.437Z,41.93
2023-07-06T08:00:02.465Z,41.93
2023-07-06T08:01:02.514Z,41.92
2023-07-06T08:02:02.517Z,41.91
2023-07-06T08:03:02.682Z,41.92
2023-07-06T08:04:02.556Z,41.93
2023-07-06T08:05:02.529Z,41.90
2023-07-06T08:06:02.490Z,41.88
2023-07-06T08:07:02.535Z,41.89
2023-07-06T08:08:02.576Z,41.89
2023-07-06T08:09:02.556Z,41.87
2023-07-06T08:10:02.598Z,41.89
2023-07-06T08:11:02.637Z,41.89
2023-07-06T08:12:02.612Z,41.91
2023-07-06T08:13:02.650Z,41.88
2023-07-06T08:14:02.715Z,41.90
2023-07-06T08:15:02.653Z,41.89
2023-07-06T08:16:02.803Z,41.90
2023-07-06T08:17:02.706Z,41.90
2023-07-06T08:18:02.727Z,41.91
2023-07-06T08:19:15.167Z,41.93
2023-07-06T08:20:25.761Z,41.93
2023-07-06T08:21:44.421Z,41.93
2023-07-06T08:23:03.718Z,41.96
2023-07-06T08:24:02.735Z,41.97
2023-07-06T08:25:02.836Z,41.94
2023-07-06T08:26:02.737Z,41.95
2023-07-06T08:27:02.757Z,41.93
2023-07-06T08:28:02.677Z,41.91
2023-07-06T08:29:02.692Z,41.92
2023-07-06T08:30:02.893Z,41.91
2023-07-06T08:31:02.682Z,41.89
2023-07-06T08:32:02.652Z,41.90
2023-07-06T08:33:02.694Z,41.90
2023-07-06T08:34:02.657Z,41.92
2023-07-06T08:35:02.833Z,41.89
2023-07-06T08:36:02.742Z,41.92
2023-07-06T08:37:02.648Z,41.93
2023-07-06T08:38:02.611Z,41.91
2023-07-06T08:39:02.619Z,41.94
2023-07-06T08:40:02.586Z,41.92
2023-07-06T08:41:02.589Z,41.92
2023-07-06T08:42:02.604Z,41.90
2023-07-06T08:43:02.564Z,41.87
2023-07-06T08:44:02.595Z,41.86
2023-07-06T08:45:02.558Z,41.89
2023-07-06T08:46:02.638Z,41.86
2023-07-06T08:47:02.735Z,41.87
2023-07-06T08:48:02.796Z,41.86
2023-07-06T08:49:02.857Z,41.85
2023-07-06T08:50:02.836Z,41.86
2023-07-06T08:51:02.867Z,41.85
2023-07-06T08:52:02.997Z,41.86
2023-07-06T08:53:03.026Z,41.85
2023-07-06T08:54:03.187Z,41.82
2023-07-06T08:55:03.343Z,41.82
2023-07-06T08:56:03.182Z,41.80
2023-07-06T08:57:03.258Z,41.79
2023-07-06T08:58:03.306Z,41.75
2023-07-06T08:59:03.376Z,41.75
2023-07-06T09:00:03.427Z,41.68
2023-07-06T09:01:03.515Z,41.70
2023-07-06T09:02:03.542Z,41.63
2023-07-06T09:03:03.952Z,41.64
2023-07-06T09:04:03.669Z,41.58
2023-07-06T09:05:03.863Z,41.58
2023-07-06T09:06:03.717Z,41.57
2023-07-06T09:07:03.833Z,41.51
2023-07-06T09:08:03.875Z,41.52
2023-07-06T09:09:03.990Z,41.45
2023-07-06T09:10:22.535Z,41.47
2023-07-06T09:11:20.427Z,41.47
2023-07-06T09:12:04.958Z,41.37
2023-07-06T09:13:03.985Z,41.38
2023-07-06T09:14:04.070Z,41.33
2023-07-06T09:15:04.000Z,41.28
2023-07-06T09:16:03.936Z,41.23
2023-07-06T09:17:04.013Z,41.20
2023-07-06T09:18:04.327Z,41.17
2023-07-06T09:19:03.925Z,41.11
2023-07-06T09:20:03.931Z,41.12
2023-07-06T09:21:03.957Z,41.05
2023-07-06T09:22:03.928Z,41.04
2023-07-06T09:23:03.920Z,41.01
2023-07-06T09:24:03.898Z,41.01
2023-07-06T09:25:03.898Z,41.00
2023-07-06T09:26:03.907Z,40.93
2023-07-06T09:27:03.906Z,40.96
2023-07-06T09:28:03.886Z,40.89
2023-07-06T09:29:03.847Z,40.88
2023-07-06T09:30:03.876Z,40.84
2023-07-06T09:31:04.005Z,40.84
2023-07-06T09:32:03.827Z,40.83
2023-07-06T09:33:03.909Z,40.81
2023-07-06T09:34:03.860Z,40.78
2023-07-06T09:35:03.850Z,40.76
2023-07-06T09:36:03.877Z,40.72
2023-07-06T09:37:03.992Z,40.73
2023-07-06T09:38:03.993Z,40.72
2023-07-06T09:39:04.062Z,40.69
2023-07-06T09:40:04.103Z,40.73
2023-07-06T09:41:04.154Z,40.81
2023-07-06T09:42:04.186Z,40.88
2023-07-06T09:43:04.243Z,40.96
2023-07-06T09:44:04.323Z,41.03
2023-07-06T09:45:04.354Z,41.10
2023-07-06T09:46:05.723Z,41.17
2023-07-06T09:47:04.703Z,41.23
2023-07-06T09:48:04.568Z,41.35
2023-07-06T09:49:04.559Z,41.39
2023-07-06T09:50:04.656Z,41.63
2023-07-06T09:51:04.631Z,41.67
2023-07-06T09:52:04.641Z,41.66
2023-07-06T09:53:04.703Z,41.70
2023-07-06T09:54:04.716Z,41.74
2023-07-06T09:55:04.757Z,41.79
2023-07-06T09:56:04.761Z,41.83
2023-07-06T09:57:04.818Z,41.85
2023-07-06T09:58:04.809Z,41.87
2023-07-06T09:59:04.839Z,41.85
2023-07-06T10:00:04.853Z,41.96
2023-07-06T10:01:04.916Z,41.86
2023-07-06T10:02:04.860Z,41.90
2023-07-06T10:03:04.963Z,42.26
2023-07-06T10:04:04.862Z,42.08
2023-07-06T10:05:04.876Z,42.25
2023-07-06T10:06:04.850Z,42.09
2023-07-06T10:07:04.845Z,42.11
2023-07-06T10:08:04.851Z,42.20
2023-07-06T10:09:04.872Z,42.06
2023-07-06T10:10:04.877Z,42.11
2023-07-06T10:11:04.864Z,42.04
2023-07-06T10:12:04.831Z,42.30
2023-07-06T10:13:04.836Z,42.60
2023-07-06T10:14:04.875Z,42.46
2023-07-06T10:15:04.868Z,42.31
2023-07-06T10:16:04.889Z,42.45
2023-07-06T10:17:04.938Z,42.46
2023-07-06T10:18:04.983Z,42.52
2023-07-06T10:19:04.990Z,42.66
2023-07-06T10:20:05.349Z,42.63
2023-07-06T10:21:05.108Z,42.66
2023-07-06T10:22:05.186Z,42.77
2023-07-06T10:23:05.291Z,42.66
2023-07-06T10:24:05.264Z,42.74
2023-07-06T10:25:05.355Z,42.76
2023-07-06T10:26:05.629Z,42.87
2023-07-06T10:27:05.424Z,43.27
2023-07-06T10:28:05.453Z,43.02
2023-07-06T10:29:05.510Z,42.89
2023-07-06T10:30:05.556Z,42.44
2023-07-06T10:31:05.601Z,42.13
2023-07-06T10:32:05.847Z,42.19
2023-07-06T10:33:05.770Z,42.14
2023-07-06T10:34:05.757Z,42.12
2023-07-06T10:35:05.830Z,42.14
2023-07-06T10:36:05.864Z,42.12
2023-07-06T10:37:05.947Z,42.06
2023-07-06T10:38:06.023Z,42.03
2023-07-06T10:39:06.068Z,41.99
2023-07-06T10:40:06.423Z,41.93
2023-07-06T10:41:06.217Z,41.91
2023-07-06T10:42:13.370Z,41.88
2023-07-06T10:43:06.238Z,41.81
2023-07-06T10:44:06.247Z,41.77
2023-07-06T10:45:06.263Z,41.72
2023-07-06T10:46:06.234Z,41.70
2023-07-06T10:47:06.207Z,41.65
2023-07-06T10:48:06.275Z,41.63
2023-07-06T10:49:06.361Z,41.62
2023-07-06T10:50:06.194Z,41.58
2023-07-06T10:51:06.155Z,41.56
2023-07-06T10:52:06.186Z,41.52
2023-07-06T10:53:06.184Z,41.50
2023-07-06T10:54:06.195Z,41.46
2023-07-06T10:55:06.441Z,41.44
2023-07-06T10:56:06.153Z,41.42
2023-07-06T10:57:06.146Z,41.39
2023-07-06T10:58:06.113Z,41.37
2023-07-06T10:59:06.104Z,41.36
2023-07-06T11:00:06.406Z,41.29
2023-07-06T11:01:06.128Z,41.27
2023-07-06T11:02:06.124Z,41.23
2023-07-06T11:03:06.133Z,41.17
2023-07-06T11:04:06.248Z,41.16
2023-07-06T11:05:06.085Z,41.11
2023-07-06T11:06:06.076Z,41.07
2023-07-06T11:07:06.059Z,41.04
2023-07-06T11:08:06.073Z,40.99
2023-07-06T11:09:06.052Z,40.95
2023-07-06T11:10:06.048Z,40.90
2023-07-06T11:11:06.029Z,40.91
2023-07-06T11:12:06.034Z,40.86
2023-07-06T11:13:06.075Z,40.83
2023-07-06T11:14:06.066Z,40.78
2023-07-06T11:15:06.441Z,40.76
2023-07-06T11:16:06.841Z,40.72
2023-07-06T11:17:06.025Z,40.70
2023-07-06T11:18:06.045Z,40.66
2023-07-06T11:19:06.015Z,40.62
2023-07-06T11:20:06.403Z,40.61
2023-07-06T11:21:06.028Z,40.56
2023-07-06T11:22:05.976Z,40.12
2023-07-06T11:23:06.017Z,40.37
2023-07-06T11:24:05.984Z,40.39
2023-07-06T11:25:06.482Z,40.39
2023-07-06T11:26:05.933Z,40.34
2023-07-06T11:27:05.948Z,40.28
2023-07-06T11:28:05.982Z,40.25
2023-07-06T11:29:05.967Z,40.22
2023-07-06T11:30:06.439Z,40.18
2023-07-06T11:31:05.989Z,40.15
2023-07-06T11:32:05.902Z,40.12
2023-07-06T11:33:05.969Z,40.07
2023-07-06T11:34:05.906Z,40.06
2023-07-06T11:35:05.934Z,40.03
2023-07-06T11:36:05.887Z,39.98
2023-07-06T11:37:05.936Z,39.94
2023-07-06T11:38:05.864Z,39.91
2023-07-06T11:39:05.956Z,39.89
2023-07-06T11:40:05.936Z,39.85
2023-07-06T11:41:05.882Z,39.84
2023-07-06T11:42:05.865Z,39.79
2023-07-06T11:43:05.846Z,39.73
2023-07-06T11:44:05.887Z,39.69
2023-07-06T11:45:05.915Z,39.67
2023-07-06T11:46:05.826Z,39.63
2023-07-06T11:47:05.857Z,38.95
2023-07-06T11:48:05.869Z,39.38
2023-07-06T11:49:05.828Z,39.44
2023-07-06T11:50:05.859Z,39.42
2023-07-06T11:51:05.833Z,39.45
2023-07-06T11:52:05.774Z,39.45
2023-07-06T11:53:05.842Z,39.40
2023-07-06T11:54:05.792Z,39.37
2023-07-06T11:55:05.772Z,39.37
2023-07-06T11:56:05.775Z,39.38
2023-07-06T11:57:05.765Z,39.33
2023-07-06T11:58:05.759Z,39.34
2023-07-06T11:59:05.850Z,39.33
2023-07-06T12:00:05.772Z,39.29
2023-07-06T12:01:05.841Z,39.26
2023-07-06T12:02:05.770Z,39.25
2023-07-06T12:03:05.888Z,39.23
2023-07-06T12:04:05.892Z,39.22
2023-07-06T12:05:05.801Z,39.20
2023-07-06T12:06:05.822Z,39.19
2023-07-06T12:07:05.850Z,39.20
2023-07-06T12:08:05.828Z,39.16
2023-07-06T12:09:05.848Z,39.13
2023-07-06T12:10:05.860Z,39.12
2023-07-06T12:11:05.884Z,39.07
2023-07-06T12:12:05.849Z,39.07
2023-07-06T12:13:05.891Z,39.08
2023-07-06T12:14:05.956Z,39.04
2023-07-06T12:15:05.867Z,39.01
2023-07-06T12:16:06.007Z,38.99
2023-07-06T12:17:05.889Z,38.98
2023-07-06T12:18:06.025Z,38.95
2023-07-06T12:19:05.913Z,38.64
2023-07-06T12:20:05.926Z,38.63
2023-07-06T12:21:05.936Z,38.79
2023-07-06T12:22:05.947Z,38.88
2023-07-06T12:23:05.964Z,38.92
2023-07-06T12:24:05.939Z,38.56
2023-07-06T12:25:05.972Z,38.86
2023-07-06T12:26:05.989Z,38.95
2023-07-06T12:27:06.002Z,39.02
2023-07-06T12:28:06.016Z,39.07
2023-07-06T12:29:06.082Z,39.03
2023-07-06T12:30:06.154Z,39.09
2023-07-06T12:31:06.203Z,39.11
2023-07-06T12:32:06.174Z,39.12
2023-07-06T12:33:06.284Z,39.14
2023-07-06T12:34:06.297Z,39.14
2023-07-06T12:35:06.354Z,39.12
2023-07-06T12:36:06.390Z,39.09
2023-07-06T12:37:06.428Z,39.10
2023-07-06T12:38:06.495Z,39.09
2023-07-06T12:39:06.503Z,39.07
2023-07-06T12:40:06.946Z,39.09
2023-07-06T12:41:06.698Z,39.05
2023-07-06T12:42:06.692Z,39.07
2023-07-06T12:43:06.816Z,39.03
2023-07-06T12:44:06.839Z,39.02
2023-07-06T12:45:09.356Z,39.00
2023-07-06T12:46:07.211Z,38.96
2023-07-06T12:47:07.276Z,38.96
2023-07-06T12:48:07.338Z,38.94
2023-07-06T12:49:07.338Z,38.91
2023-07-06T12:50:07.390Z,38.72
2023-07-06T12:51:07.465Z,38.67
2023-07-06T12:52:07.549Z,38.75
2023-07-06T12:53:07.612Z,38.86
2023-07-06T12:54:07.640Z,38.86